createdAt,value
2018-11-07T00:01:39.173Z,7.80
2018-11-07T00:04:14.083Z,7.80
2018-11-07T00:06:48.304Z,7.80
2018-11-07T00:09:22.487Z,7.80
2018-11-07T00:11:56.842Z,7.80
2018-11-07T00:14:31.184Z,7.80
2018-11-07T00:17:06.368Z,7.80
2018-11-07T00:19:41.113Z,7.80
2018-11-07T00:22:15.755Z,7.80
2018-11-07T00:24:50.065Z,7.70
2018-11-07T00:27:24.805Z,7.70
2018-11-07T00:29:59.330Z,7.70
2018-11-07T00:32:33.741Z,7.60
2018-11-07T00:35:09.561Z,7.60
2018-11-07T00:37:44.032Z,7.50
2018-11-07T00:40:18.596Z,7.50
2018-11-07T00:42:53.388Z,7.50
2018-11-07T00:45:27.961Z,7.50
2018-11-07T00:48:02.505Z,7.50
2018-11-07T00:50:37.024Z,7.50
2018-11-07T00:53:11.368Z,7.50
2018-11-07T00:55:45.918Z,7.60
2018-11-07T00:58:20.518Z,7.50
2018-11-07T01:00:55.036Z,7.50
2018-11-07T01:03:29.478Z,7.50
2018-11-07T01:06:03.882Z,7.50
2018-11-07T01:08:38.979Z,7.50
2018-11-07T01:11:13.580Z,7.40
2018-11-07T01:13:48.032Z,7.40
2018-11-07T01:16:22.361Z,7.40
2018-11-07T01:18:56.953Z,7.50
2018-11-07T01:21:31.466Z,7.50
2018-11-07T01:24:05.820Z,7.50
2018-11-07T01:26:40.459Z,7.50
2018-11-07T01:29:14.944Z,7.50
2018-11-07T01:31:49.791Z,7.50
2018-11-07T01:34:24.599Z,7.40
2018-11-07T01:36:59.096Z,7.50
2018-11-07T01:39:33.595Z,7.40
2018-11-07T01:42:08.043Z,7.40
2018-11-07T01:44:42.356Z,7.40
2018-11-07T01:47:16.671Z,7.40
2018-11-07T01:49:51.197Z,7.40
2018-11-07T01:52:25.720Z,7.40
2018-11-07T01:55:00.146Z,7.30
2018-11-07T01:57:35.938Z,7.30
2018-11-07T02:00:11.903Z,7.30
2018-11-07T02:02:46.261Z,7.30
2018-11-07T02:05:21.070Z,7.30
2018-11-07T02:07:55.729Z,7.30
2018-11-07T02:10:30.068Z,7.40
2018-11-07T02:13:04.852Z,7.40
2018-11-07T02:15:39.092Z,7.50
2018-11-07T02:18:13.484Z,7.60
2018-11-07T02:20:48.567Z,7.60
2018-11-07T02:23:23.233Z,7.70
2018-11-07T02:25:57.382Z,7.70
2018-11-07T02:28:31.714Z,7.90
2018-11-07T02:31:06.389Z,8.00
2018-11-07T02:33:40.828Z,8.10
2018-11-07T02:36:15.068Z,8.10
2018-11-07T02:38:49.462Z,8.10
2018-11-07T02:41:24.041Z,8.10
2018-11-07T02:43:58.710Z,8.10
2018-11-07T02:46:33.529Z,8.10
2018-11-07T02:49:07.907Z,8.10
2018-11-07T02:51:42.980Z,8.10
2018-11-07T02:54:18.239Z,8.20
2018-11-07T02:56:52.476Z,8.30
2018-11-07T02:59:27.264Z,8.30
2018-11-07T03:02:02.284Z,8.40
2018-11-07T03:04:36.721Z,8.40
2018-11-07T03:07:11.876Z,8.30
2018-11-07T03:09:46.583Z,8.30
2018-11-07T03:12:20.905Z,8.40
2018-11-07T03:14:55.565Z,8.50
2018-11-07T03:17:32.354Z,8.40
2018-11-07T03:20:08.188Z,8.50
2018-11-07T03:22:42.734Z,8.50
2018-11-07T03:25:17.242Z,8.40
2018-11-07T03:27:51.745Z,8.40
2018-11-07T03:30:26.233Z,8.30
2018-11-07T03:33:00.781Z,8.20
2018-11-07T03:35:35.231Z,8.20
2018-11-07T03:38:09.777Z,8.20
2018-11-07T03:40:44.151Z,8.20
2018-11-07T03:43:18.520Z,8.10
2018-11-07T03:45:58.662Z,8.10
2018-11-07T03:48:33.173Z,8.00
2018-11-07T03:51:07.495Z,8.00
2018-11-07T03:53:41.906Z,7.90
2018-11-07T03:56:16.381Z,7.90
2018-11-07T03:58:52.056Z,8.00
2018-11-07T04:01:26.384Z,7.90
2018-11-07T04:04:01.827Z,8.00
2018-11-07T04:06:36.005Z,8.00
2018-11-07T04:09:11.984Z,8.10
2018-11-07T04:11:46.463Z,8.20
2018-11-07T04:14:20.680Z,8.20
2018-11-07T04:16:54.974Z,8.20
2018-11-07T04:19:29.517Z,8.30
2018-11-07T04:22:03.745Z,8.40
2018-11-07T04:24:38.377Z,8.40
2018-11-07T04:27:12.534Z,8.30
2018-11-07T04:29:46.899Z,8.40
2018-11-07T04:32:21.314Z,8.40
2018-11-07T04:34:55.613Z,8.40
2018-11-07T04:37:30.032Z,8.40
2018-11-07T04:40:04.549Z,8.30
2018-11-07T04:42:38.935Z,8.40
2018-11-07T04:45:13.123Z,8.30
2018-11-07T04:47:49.192Z,8.30
2018-11-07T04:50:23.489Z,8.30
2018-11-07T04:52:57.758Z,8.30
2018-11-07T04:55:32.025Z,8.30
2018-11-07T04:58:06.424Z,8.30
2018-11-07T05:00:40.713Z,8.40
2018-11-07T05:03:15.193Z,8.40
2018-11-07T05:05:49.914Z,8.40
2018-11-07T05:08:24.182Z,8.40
2018-11-07T05:10:58.525Z,8.40
2018-11-07T05:13:32.936Z,8.40
2018-11-07T05:16:07.346Z,8.30
2018-11-07T05:18:41.785Z,8.30
2018-11-07T05:21:16.128Z,8.30
2018-11-07T05:23:50.491Z,8.30
2018-11-07T05:26:27.701Z,8.30
2018-11-07T05:29:02.620Z,8.40
2018-11-07T05:31:49.071Z,8.40
2018-11-07T05:34:23.342Z,8.30
2018-11-07T05:36:57.762Z,8.30
2018-11-07T05:39:32.520Z,8.40
2018-11-07T05:42:06.736Z,8.60
2018-11-07T05:44:41.504Z,8.70
2018-11-07T05:47:15.863Z,8.70
2018-11-07T05:49:50.231Z,8.80
2018-11-07T05:52:24.533Z,8.80
2018-11-07T05:54:58.795Z,8.70
2018-11-07T05:57:33.104Z,8.80
2018-11-07T06:00:09.292Z,8.70
2018-11-07T06:02:43.613Z,8.70
2018-11-07T06:05:18.096Z,8.70
2018-11-07T06:07:52.533Z,8.70
2018-11-07T06:10:26.955Z,8.70
2018-11-07T06:13:01.246Z,8.70
2018-11-07T06:15:35.460Z,8.70
2018-11-07T06:18:09.780Z,8.70
2018-11-07T06:20:44.182Z,8.70
2018-11-07T06:23:18.559Z,8.70
2018-11-07T06:25:58.438Z,8.60
2018-11-07T06:28:33.547Z,8.60
2018-11-07T06:31:08.792Z,8.60
2018-11-07T06:33:44.250Z,8.60
2018-11-07T06:36:29.093Z,8.60
2018-11-07T06:39:05.940Z,8.60
2018-11-07T06:41:44.007Z,8.50
2018-11-07T06:44:24.622Z,8.40
2018-11-07T06:46:59.433Z,8.40
2018-11-07T06:49:33.721Z,8.30
2018-11-07T06:52:12.523Z,8.30
2018-11-07T06:54:54.674Z,8.30
2018-11-07T06:57:36.461Z,8.40
2018-11-07T07:00:14.208Z,8.30
2018-11-07T07:02:48.859Z,8.40
2018-11-07T07:05:23.310Z,8.40
2018-11-07T07:08:17.419Z,8.50
2018-11-07T07:10:53.266Z,8.50
2018-11-07T07:13:30.614Z,8.60
2018-11-07T07:16:06.520Z,8.60
2018-11-07T07:18:44.428Z,8.70
2018-11-07T07:21:18.847Z,8.70
2018-11-07T07:23:54.077Z,8.70
2018-11-07T07:26:29.970Z,8.80
2018-11-07T07:29:09.421Z,8.80
2018-11-07T07:31:43.814Z,8.80
2018-11-07T07:34:18.962Z,8.90
2018-11-07T07:36:55.958Z,8.90
2018-11-07T07:39:30.297Z,8.90
2018-11-07T07:42:07.776Z,9.00
2018-11-07T07:44:43.160Z,9.10
2018-11-07T07:47:17.859Z,9.10
2018-11-07T07:49:52.264Z,9.30
2018-11-07T07:52:35.204Z,9.40
2018-11-07T07:55:17.488Z,9.40
2018-11-07T07:57:51.906Z,9.50
2018-11-07T08:00:28.916Z,9.60
2018-11-07T08:03:06.012Z,9.70
2018-11-07T08:05:40.512Z,9.80
2018-11-07T08:08:14.992Z,9.90
2018-11-07T08:10:49.264Z,9.90
2018-11-07T08:13:23.544Z,10.00
2018-11-07T08:15:57.982Z,10.10
2018-11-07T08:18:32.268Z,10.20
2018-11-07T08:21:06.910Z,10.30
2018-11-07T08:23:41.255Z,10.30
2018-11-07T08:26:15.575Z,10.40
2018-11-07T08:28:50.098Z,10.40
2018-11-07T08:31:24.516Z,10.40
2018-11-07T08:33:58.652Z,10.40
2018-11-07T08:36:33.082Z,10.40
2018-11-07T08:39:09.046Z,10.40
2018-11-07T08:41:43.225Z,10.40
2018-11-07T08:44:17.675Z,10.50
2018-11-07T08:46:51.957Z,10.50
2018-11-07T08:49:26.193Z,10.60
2018-11-07T08:52:00.651Z,10.60
2018-11-07T08:54:35.150Z,10.70
2018-11-07T08:57:09.596Z,10.70
2018-11-07T08:59:43.768Z,10.80
2018-11-07T09:02:18.208Z,10.80
2018-11-07T09:04:52.449Z,10.80
2018-11-07T09:07:26.748Z,10.80
2018-11-07T09:10:01.222Z,10.90
2018-11-07T09:12:36.445Z,10.90
2018-11-07T09:15:12.656Z,11.00
2018-11-07T09:17:47.100Z,11.10
2018-11-07T09:20:23.589Z,11.10
2018-11-07T09:22:57.904Z,11.20
2018-11-07T09:25:32.294Z,11.30
2018-11-07T09:28:06.704Z,11.40
2018-11-07T09:30:40.930Z,11.50
2018-11-07T09:33:15.231Z,11.50
2018-11-07T09:35:49.894Z,11.60
2018-11-07T09:38:24.585Z,11.70
2018-11-07T09:40:59.691Z,11.80
2018-11-07T09:43:35.139Z,11.80
2018-11-07T09:46:09.412Z,11.90
2018-11-07T09:48:44.692Z,12.00
2018-11-07T09:51:19.481Z,12.00
2018-11-07T09:53:54.016Z,12.10
2018-11-07T09:56:28.371Z,12.20
2018-11-07T09:59:02.805Z,12.30
2018-11-07T10:01:37.070Z,12.30
2018-11-07T10:04:11.261Z,12.40
2018-11-07T10:06:46.900Z,12.40
2018-11-07T10:09:21.396Z,12.50
2018-11-07T10:11:56.267Z,12.50
2018-11-07T10:14:30.648Z,12.70
2018-11-07T10:17:05.951Z,12.70
2018-11-07T10:19:40.405Z,12.80
2018-11-07T10:22:14.629Z,12.90
2018-11-07T10:24:50.504Z,13.00
2018-11-07T10:27:25.193Z,13.10
2018-11-07T10:29:59.673Z,13.20
2018-11-07T10:32:33.646Z,13.30
2018-11-07T10:35:08.744Z,13.40
2018-11-07T10:37:43.202Z,13.40
2018-11-07T10:40:19.802Z,13.50
2018-11-07T10:42:54.003Z,13.60
2018-11-07T10:45:28.544Z,13.60
2018-11-07T10:48:04.047Z,13.70
2018-11-07T10:50:38.316Z,13.70
2018-11-07T10:53:12.813Z,13.80
2018-11-07T10:55:47.355Z,13.80
2018-11-07T10:58:21.545Z,13.80
2018-11-07T11:01:01.376Z,13.80
2018-11-07T11:03:35.665Z,13.70
2018-11-07T11:06:10.070Z,13.70
2018-11-07T11:08:44.762Z,13.90
2018-11-07T11:11:19.137Z,13.90
2018-11-07T11:13:53.608Z,14.00
2018-11-07T11:16:28.735Z,14.10
2018-11-07T11:19:03.198Z,14.10
2018-11-07T11:21:37.717Z,14.20
2018-11-07T11:24:12.138Z,14.20
2018-11-07T11:26:46.469Z,14.30
2018-11-07T11:29:20.713Z,14.30
2018-11-07T11:31:55.144Z,14.30
2018-11-07T11:34:29.592Z,14.30
2018-11-07T11:37:05.438Z,14.30
2018-11-07T11:39:40.597Z,14.30
2018-11-07T11:42:16.527Z,14.40
2018-11-07T11:44:52.376Z,14.50
2018-11-07T11:47:26.847Z,14.60
2018-11-07T11:50:02.519Z,14.60
2018-11-07T11:52:37.065Z,14.60
2018-11-07T11:55:12.102Z,14.70
2018-11-07T11:57:47.662Z,14.70
2018-11-07T12:00:23.028Z,14.80
2018-11-07T12:02:58.142Z,14.80
2018-11-07T12:05:34.167Z,14.90
2018-11-07T12:08:12.075Z,15.00
2018-11-07T12:10:48.000Z,15.00
2018-11-07T12:13:22.446Z,15.00
2018-11-07T12:15:57.356Z,15.10
2018-11-07T12:18:31.999Z,15.20
2018-11-07T12:21:07.362Z,15.20
2018-11-07T12:23:41.862Z,15.30
2018-11-07T12:26:16.435Z,15.30
2018-11-07T12:28:50.877Z,15.30
2018-11-07T12:31:25.306Z,15.30
2018-11-07T12:34:01.129Z,15.80
2018-11-07T12:36:36.167Z,16.40
2018-11-07T12:39:10.483Z,17.10
2018-11-07T12:41:44.961Z,17.70
2018-11-07T12:44:19.241Z,18.30
2018-11-07T12:46:53.565Z,18.80
2018-11-07T12:49:29.554Z,19.50
2018-11-07T12:52:05.679Z,20.50
2018-11-07T12:54:40.521Z,21.40
2018-11-07T12:57:15.317Z,22.20
2018-11-07T12:59:50.352Z,22.80
2018-11-07T13:02:26.280Z,23.10
2018-11-07T13:05:01.484Z,23.00
2018-11-07T13:07:40.798Z,23.60
2018-11-07T13:10:19.879Z,24.20
2018-11-07T13:12:54.354Z,24.50
2018-11-07T13:15:30.350Z,25.00
2018-11-07T13:18:06.369Z,24.60
2018-11-07T13:20:41.262Z,25.00
2018-11-07T13:23:17.421Z,25.10
2018-11-07T13:25:52.605Z,25.40
2018-11-07T13:28:27.593Z,25.60
2018-11-07T13:31:02.588Z,25.40
2018-11-07T13:33:38.339Z,25.70
2018-11-07T13:36:13.009Z,26.20
2018-11-07T13:38:48.559Z,26.10
2018-11-07T13:41:22.951Z,26.20
2018-11-07T13:44:03.981Z,26.30
2018-11-07T13:46:39.881Z,26.80
2018-11-07T13:49:14.747Z,26.50
2018-11-07T13:51:50.340Z,26.40
2018-11-07T13:54:26.689Z,26.50
2018-11-07T13:57:08.701Z,26.60
2018-11-07T13:59:43.205Z,26.80
2018-11-07T14:02:18.120Z,27.20
2018-11-07T14:04:53.041Z,27.70
2018-11-07T14:07:27.746Z,27.90
2018-11-07T14:10:02.737Z,28.00
2018-11-07T14:12:37.627Z,28.30
2018-11-07T14:15:13.260Z,28.40
2018-11-07T14:17:47.736Z,28.60
2018-11-07T14:20:22.420Z,28.40
2018-11-07T14:22:57.327Z,28.40
2018-11-07T14:25:31.711Z,28.70
2018-11-07T14:28:07.407Z,28.40
2018-11-07T14:30:42.843Z,28.80
2018-11-07T14:33:17.999Z,28.90
2018-11-07T14:35:54.876Z,28.80
2018-11-07T14:38:30.212Z,28.90
2018-11-07T14:41:05.868Z,28.20
2018-11-07T14:43:40.570Z,28.10
2018-11-07T14:46:15.107Z,28.10
2018-11-07T14:48:51.386Z,26.80
2018-11-07T14:51:27.760Z,24.00
2018-11-07T14:54:04.336Z,21.80
2018-11-07T14:56:54.171Z,20.30
2018-11-07T14:59:28.452Z,19.30
2018-11-07T15:02:03.086Z,18.50
2018-11-07T15:04:47.128Z,18.00
2018-11-07T15:07:21.941Z,17.50
2018-11-07T15:09:56.882Z,17.10
2018-11-07T15:12:32.736Z,16.90
2018-11-07T15:15:08.708Z,16.60
2018-11-07T15:17:44.014Z,16.40
2018-11-07T15:20:19.613Z,16.20
2018-11-07T15:22:54.205Z,16.00
2018-11-07T15:25:28.556Z,15.80
2018-11-07T15:28:03.132Z,15.60
2018-11-07T15:30:38.173Z,15.40
2018-11-07T15:33:12.804Z,15.20
2018-11-07T15:35:49.220Z,15.00
2018-11-07T15:38:24.308Z,14.80
2018-11-07T15:40:58.820Z,14.60
2018-11-07T15:43:33.685Z,14.50
2018-11-07T15:46:07.940Z,14.40
2018-11-07T15:48:42.598Z,14.20
2018-11-07T15:51:21.216Z,14.10
2018-11-07T15:53:55.560Z,14.00
2018-11-07T15:56:30.177Z,13.90
2018-11-07T15:59:05.284Z,13.90
2018-11-07T16:01:40.136Z,13.80
2018-11-07T16:04:14.862Z,13.70
2018-11-07T16:06:49.193Z,13.70
2018-11-07T16:09:24.392Z,13.60
2018-11-07T16:11:58.693Z,13.50
2018-11-07T16:14:33.558Z,13.40
2018-11-07T16:17:07.859Z,13.40
2018-11-07T16:19:42.088Z,13.40
2018-11-07T16:22:16.649Z,13.30
2018-11-07T16:24:51.309Z,13.30
2018-11-07T16:27:26.766Z,13.30
2018-11-07T16:30:01.371Z,13.30
2018-11-07T16:32:35.936Z,13.20
2018-11-07T16:35:17.010Z,13.10
2018-11-07T16:37:51.578Z,13.10
2018-11-07T16:40:25.950Z,12.90
2018-11-07T16:43:01.838Z,12.80
2018-11-07T16:45:36.740Z,12.70
2018-11-07T16:48:11.321Z,12.50
2018-11-07T16:50:48.663Z,12.50
2018-11-07T16:53:23.719Z,12.40
2018-11-07T16:55:58.707Z,12.30
2018-11-07T16:58:33.120Z,12.20
2018-11-07T17:01:07.558Z,12.10
2018-11-07T17:03:42.162Z,12.00
2018-11-07T17:06:16.707Z,12.00
2018-11-07T17:08:50.990Z,11.90
2018-11-07T17:11:25.374Z,11.80
2018-11-07T17:14:00.507Z,11.80
2018-11-07T17:16:34.884Z,11.70
2018-11-07T17:19:10.019Z,11.70
2018-11-07T17:21:44.277Z,11.70
2018-11-07T17:24:25.669Z,11.60
2018-11-07T17:27:00.839Z,11.60
2018-11-07T17:29:36.127Z,11.50
2018-11-07T17:32:11.148Z,11.50
2018-11-07T17:34:46.681Z,11.40
2018-11-07T17:37:21.070Z,11.40
2018-11-07T17:40:02.508Z,11.30
2018-11-07T17:42:36.776Z,11.30
2018-11-07T17:45:12.973Z,11.30
2018-11-07T17:47:48.029Z,11.30
2018-11-07T17:50:23.202Z,11.30
2018-11-07T17:52:57.506Z,11.30
2018-11-07T17:55:31.781Z,11.30
2018-11-07T17:58:06.118Z,11.40
2018-11-07T18:00:40.492Z,11.40
2018-11-07T18:03:14.699Z,11.50
2018-11-07T18:05:49.241Z,11.40
2018-11-07T18:08:23.910Z,11.40
2018-11-07T18:10:58.172Z,11.40
2018-11-07T18:13:33.187Z,11.30
2018-11-07T18:16:08.557Z,11.30
2018-11-07T18:18:50.310Z,11.20
2018-11-07T18:21:28.717Z,11.20
2018-11-07T18:24:05.130Z,11.10
2018-11-07T18:26:46.961Z,11.00
2018-11-07T18:29:21.873Z,11.00
2018-11-07T18:31:58.040Z,11.00
2018-11-07T18:34:35.828Z,11.00
2018-11-07T18:37:17.058Z,11.00
2018-11-07T18:39:52.130Z,10.90
2018-11-07T18:42:34.752Z,10.90
2018-11-07T18:45:11.671Z,10.90
2018-11-07T18:47:46.870Z,10.90
2018-11-07T18:50:21.787Z,10.90
2018-11-07T18:52:56.253Z,10.90
2018-11-07T18:55:31.116Z,10.90
2018-11-07T18:58:07.611Z,10.80
2018-11-07T19:00:42.035Z,10.80
2018-11-07T19:03:18.109Z,10.80
2018-11-07T19:05:52.613Z,10.70
2018-11-07T19:08:27.857Z,10.60
2018-11-07T19:11:02.931Z,10.60
2018-11-07T19:13:37.829Z,10.50
2018-11-07T19:16:12.467Z,10.50
2018-11-07T19:18:46.931Z,10.50
2018-11-07T19:21:23.298Z,10.50
2018-11-07T19:23:57.966Z,10.40
2018-11-07T19:26:33.369Z,10.30
2018-11-07T19:29:08.690Z,10.20
2018-11-07T19:31:43.319Z,10.20
2018-11-07T19:34:18.803Z,10.20
2018-11-07T19:36:55.139Z,10.20
2018-11-07T19:39:30.263Z,10.20
2018-11-07T19:42:05.283Z,10.10
2018-11-07T19:44:40.311Z,10.10
2018-11-07T19:47:16.134Z,10.00
2018-11-07T19:49:52.165Z,10.00
2018-11-07T19:52:29.170Z,9.90
2018-11-07T19:55:05.782Z,9.90
2018-11-07T19:57:41.075Z,9.90
2018-11-07T20:00:20.377Z,9.80
2018-11-07T20:02:54.989Z,9.70
2018-11-07T20:05:29.483Z,9.70
2018-11-07T20:08:04.109Z,9.60
2018-11-07T20:10:38.755Z,9.50
2018-11-07T20:13:16.979Z,9.50
2018-11-07T20:15:51.481Z,9.50
2018-11-07T20:18:26.385Z,9.50
2018-11-07T20:21:01.063Z,9.40
2018-11-07T20:23:37.359Z,9.40
2018-11-07T20:26:11.872Z,9.40
2018-11-07T20:28:46.649Z,9.30
2018-11-07T20:31:21.071Z,9.20
2018-11-07T20:33:56.094Z,9.20
2018-11-07T20:36:30.549Z,9.20
2018-11-07T20:39:07.840Z,9.10
2018-11-07T20:41:42.596Z,9.10
2018-11-07T20:44:18.058Z,9.10
2018-11-07T20:46:52.601Z,9.10
2018-11-07T20:49:27.826Z,9.10
2018-11-07T20:52:02.701Z,9.00
2018-11-07T20:54:38.252Z,9.10
2018-11-07T20:57:12.739Z,9.10
2018-11-07T20:59:47.610Z,9.00
2018-11-07T21:02:22.001Z,9.00
2018-11-07T21:04:56.701Z,9.10
2018-11-07T21:07:31.847Z,9.10
2018-11-07T21:10:10.474Z,9.10
2018-11-07T21:12:45.201Z,9.10
2018-11-07T21:15:20.576Z,9.10
2018-11-07T21:17:55.290Z,9.10
2018-11-07T21:20:31.157Z,9.10
2018-11-07T21:23:05.780Z,9.10
2018-11-07T21:25:40.701Z,9.10
2018-11-07T21:28:15.056Z,9.20
2018-11-07T21:30:50.389Z,9.30
2018-11-07T21:33:25.510Z,9.40
2018-11-07T21:36:00.630Z,9.40
2018-11-07T21:38:35.237Z,9.30
2018-11-07T21:41:10.411Z,9.40
2018-11-07T21:43:45.192Z,9.50
2018-11-07T21:46:19.669Z,9.50
2018-11-07T21:48:54.265Z,9.40
2018-11-07T21:51:28.965Z,9.40
2018-11-07T21:54:03.626Z,9.50
2018-11-07T21:56:38.445Z,9.50
2018-11-07T21:59:12.873Z,9.60
2018-11-07T22:01:47.445Z,9.60
2018-11-07T22:04:21.970Z,9.70
2018-11-07T22:06:56.428Z,9.80
2018-11-07T22:09:31.344Z,9.90
2018-11-07T22:12:06.138Z,10.00
2018-11-07T22:14:40.704Z,10.10
2018-11-07T22:17:19.728Z,10.20
2018-11-07T22:19:54.163Z,10.20
2018-11-07T22:22:28.586Z,10.30
2018-11-07T22:25:03.188Z,10.40
2018-11-07T22:27:37.474Z,10.40
2018-11-07T22:30:13.855Z,10.50
2018-11-07T22:32:48.379Z,10.50
2018-11-07T22:35:23.627Z,10.60
2018-11-07T22:37:58.552Z,10.60
2018-11-07T22:40:33.345Z,10.60
2018-11-07T22:43:07.962Z,10.60
2018-11-07T22:45:42.447Z,10.60
2018-11-07T22:48:17.046Z,10.60
2018-11-07T22:50:52.451Z,10.70
2018-11-07T22:53:26.985Z,10.70
2018-11-07T22:56:01.439Z,10.70
2018-11-07T22:58:35.711Z,10.80
2018-11-07T23:01:12.525Z,10.80
2018-11-07T23:03:47.114Z,10.90
2018-11-07T23:06:50.097Z,10.90
2018-11-07T23:09:24.473Z,11.00
2018-11-07T23:11:58.776Z,11.00
2018-11-07T23:14:33.077Z,11.00
2018-11-07T23:17:07.393Z,11.00
2018-11-07T23:19:41.698Z,11.00
2018-11-07T23:22:16.029Z,11.00
2018-11-07T23:24:51.104Z,11.00
2018-11-07T23:27:25.384Z,11.00
2018-11-07T23:29:59.958Z,10.90
2018-11-07T23:32:34.402Z,10.90
2018-11-07T23:35:08.914Z,10.90
2018-11-07T23:37:43.272Z,10.90
2018-11-07T23:40:17.654Z,11.00
2018-11-07T23:42:52.317Z,11.00
2018-11-07T23:45:26.618Z,11.00
2018-11-07T23:48:01.540Z,11.00
2018-11-07T23:50:35.739Z,11.00
2018-11-07T23:53:12.644Z,11.00
2018-11-07T23:55:47.080Z,11.00
2018-11-07T23:58:21.357Z,11.00
